TAM3550 SBGR-SBRJ
Flight info
| Callsign | TAM3550 |
|---|---|
| Flight time | N/A |
| Altitude | 23000 |
| Route | NIBRU UZ171 KEVUN |
| Aircraft | A320/M-SDE3FGHIRWY/LB1 |
Departure
| Time | 2026-05-04 14:37 |
|---|---|
| Airport | São Paulo/Guarulhos–Governor André Franco Montoro International Airport (SBGR) |
Arrival
| Time | N/A |
|---|---|
| Airport | Santos Dumont Airport (SBRJ) |
| Time | Latitude | Longitude | Altitude | Speed | Heading |
|---|---|---|---|---|---|
| 2026-05-04 14:02 | -23.42766 | -46.48239 | 2474 ft | 0 kts | 264° |
| 2026-05-04 14:28 | -23.42764 | -46.48216 | 2473 ft | 4 kts | 262° |
| 2026-05-04 14:28 | -23.42759 | -46.48188 | 2473 ft | 4 kts | 250° |
| 2026-05-04 14:29 | -23.42725 | -46.48163 | 2473 ft | 4 kts | 175° |
| 2026-05-04 14:29 | -23.42720 | -46.48163 | 2473 ft | 0 kts | 176° |
| 2026-05-04 14:32 | -23.42738 | -46.48162 | 2473 ft | 7 kts | 176° |
| 2026-05-04 14:32 | -23.42793 | -46.48156 | 2473 ft | 9 kts | 173° |
| 2026-05-04 14:32 | -23.42856 | -46.48149 | 2473 ft | 7 kts | 175° |
| 2026-05-04 14:32 | -23.42861 | -46.48149 | 2473 ft | 0 kts | 175° |
| 2026-05-04 14:34 | -23.42878 | -46.48147 | 2474 ft | 7 kts | 175° |
| 2026-05-04 14:34 | -23.42937 | -46.48142 | 2474 ft | 9 kts | 175° |
| 2026-05-04 14:34 | -23.43010 | -46.48134 | 2474 ft | 12 kts | 175° |
| 2026-05-04 14:35 | -23.43099 | -46.48125 | 2474 ft | 13 kts | 174° |
| 2026-05-04 14:35 | -23.43191 | -46.48100 | 2474 ft | 15 kts | 161° |
| 2026-05-04 14:35 | -23.43291 | -46.48067 | 2474 ft | 13 kts | 163° |
| 2026-05-04 14:35 | -23.43351 | -46.48026 | 2475 ft | 6 kts | 90° |
| 2026-05-04 14:36 | -23.43336 | -46.47988 | 2474 ft | 0 kts | 72° |
| 2026-05-04 14:36 | -23.43312 | -46.47906 | 2474 ft | 42 kts | 71° |
| 2026-05-04 14:37 | -23.43159 | -46.47335 | 2471 ft | 112 kts | 73° |
| 2026-05-04 14:37 | -23.42883 | -46.46318 | 2482 ft | 165 kts | 73° |
| 2026-05-04 14:37 | -23.42533 | -46.45105 | 3160 ft | 162 kts | 71° |
| 2026-05-04 14:37 | -23.42198 | -46.43968 | 3857 ft | 163 kts | 71° |
| 2026-05-04 14:38 | -23.41835 | -46.42726 | 4185 ft | 183 kts | 70° |
| 2026-05-04 14:38 | -23.41425 | -46.41318 | 4467 ft | 206 kts | 70° |
| 2026-05-04 14:38 | -23.40971 | -46.39754 | 4687 ft | 229 kts | 70° |
| 2026-05-04 14:38 | -23.40464 | -46.38007 | 4916 ft | 255 kts | 70° |
| 2026-05-04 14:39 | -23.40192 | -46.36014 | 5306 ft | 278 kts | 93° |
| 2026-05-04 14:39 | -23.40689 | -46.33954 | 6008 ft | 287 kts | 108° |
| 2026-05-04 14:39 | -23.41373 | -46.31896 | 6791 ft | 291 kts | 109° |
| 2026-05-04 14:40 | -23.42749 | -46.27723 | 8273 ft | 298 kts | 109° |
| 2026-05-04 14:40 | -23.43448 | -46.25581 | 9039 ft | 301 kts | 110° |
| 2026-05-04 14:40 | -23.44010 | -46.23387 | 9793 ft | 305 kts | 101° |
| 2026-05-04 14:40 | -23.44399 | -46.21101 | 10441 ft | 312 kts | 101° |
| 2026-05-04 14:41 | -23.44815 | -46.18690 | 10618 ft | 335 kts | 101° |
| 2026-05-04 14:41 | -23.45264 | -46.16111 | 10862 ft | 354 kts | 102° |
| 2026-05-04 14:41 | -23.46197 | -46.10743 | 12052 ft | 366 kts | 102° |
| 2026-05-04 14:42 | -23.47140 | -46.05283 | 13340 ft | 374 kts | 102° |